Time;durP1;ratioP1;P1;durP2;ratioP2;P2;SDS_P1;SDS_P2;PMS_P1;PMS_P2;Temp;Humidity;BMP_temperature;BMP_pressure;BME280_temperature;BME280_humidity;BME280_pressure;Samples;Min_cycle;Max_cycle;Signal;HPM_P1;HPM_P2
2021/10/24 00:00:52;;;;;;;0.65;0.65;;;;;;;4.47;82.65;99283.84;4839693;29;20509;-81
2021/10/24 00:03:18;;;;;;;2.65;0.82;;;;;;;4.42;82.79;99278.00;4839471;29;20137;-80
2021/10/24 00:05:44;;;;;;;0.80;0.80;;;;;;;4.46;83.13;99283.00;4822897;29;20576;-80
2021/10/24 00:08:10;;;;;;;0.47;0.47;;;;;;;4.42;82.51;99284.00;4823780;29;20132;-80
2021/10/24 00:10:37;;;;;;;0.63;0.63;;;;;;;4.48;82.92;99282.94;4840575;29;20050;-81
2021/10/24 00:13:02;;;;;;;0.50;0.50;;;;;;;4.47;83.06;99289.00;4841154;29;20481;-81
2021/10/24 00:15:28;;;;;;;2.20;2.10;;;;;;;4.45;82.91;99283.06;4827023;29;20096;-79
2021/10/24 00:17:55;;;;;;;0.95;0.90;;;;;;;4.45;83.15;99280.47;4839297;29;20556;-80
2021/10/24 00:20:22;;;;;;;0.88;0.82;;;;;;;4.47;83.11;99281.25;4839471;29;20114;-80
2021/10/24 00:22:48;;;;;;;0.45;0.45;;;;;;;4.49;82.91;99284.59;4845690;29;20537;-81
2021/10/24 00:25:14;;;;;;;0.70;0.70;;;;;;;4.51;82.15;99283.66;4844760;29;20053;-81
2021/10/24 00:27:40;;;;;;;11.60;1.13;;;;;;;4.46;82.12;99284.72;4842106;29;20140;-80
2021/10/24 00:30:07;;;;;;;1.17;1.17;;;;;;;4.50;82.62;99288.88;4840596;29;20058;-80
2021/10/24 00:32:34;;;;;;;0.70;0.70;;;;;;;4.52;82.47;99287.06;4840781;29;20080;-81
2021/10/24 00:35:00;;;;;;;0.90;0.90;;;;;;;4.52;82.13;99284.47;4839626;29;20053;-79
2021/10/24 00:37:26;;;;;;;0.57;0.57;;;;;;;4.54;82.71;99288.72;4840204;29;20459;-81
2021/10/24 00:39:52;;;;;;;2.67;1.40;;;;;;;4.51;82.05;99282.81;4840845;29;20603;-81
2021/10/24 00:42:18;;;;;;;1.48;1.35;;;;;;;4.50;82.47;99287.13;4840327;29;20053;-81
2021/10/24 00:44:44;;;;;;;0.65;0.65;;;;;;;4.50;82.66;99288.88;4824145;29;20428;-82
2021/10/24 00:47:12;;;;;;;0.50;0.50;;;;;;;4.48;82.54;99286.34;4812162;29;20053;-82
2021/10/24 00:49:38;;;;;;;6.05;1.15;;;;;;;4.49;82.94;99294.94;4828052;29;20074;-81
2021/10/24 00:52:04;;;;;;;1.48;1.33;;;;;;;4.48;83.46;99294.09;4845019;29;20062;-81
2021/10/24 00:54:32;;;;;;;1.33;1.25;;;;;;;4.46;82.67;99285.56;4832090;29;20529;-80
2021/10/24 00:57:00;;;;;;;1.05;1.05;;;;;;;4.48;82.78;99298.44;4828606;29;20102;-82
2021/10/24 00:59:26;;;;;;;0.80;0.80;;;;;;;4.46;83.91;99311.41;4817707;29;20117;-83
2021/10/24 01:01:53;;;;;;;0.98;0.98;;;;;;;4.43;83.83;99295.19;4863245;29;20062;-81
2021/10/24 01:04:19;;;;;;;0.70;0.70;;;;;;;4.46;83.67;99307.97;4866440;29;20065;-82
2021/10/24 01:06:46;;;;;;;0.63;0.63;;;;;;;4.44;84.21;99304.63;4847409;29;20490;-79
2021/10/24 01:09:13;;;;;;;0.47;0.47;;;;;;;4.43;84.04;99300.34;4844674;29;20061;-79
2021/10/24 01:11:41;;;;;;;1.98;1.25;;;;;;;4.44;84.18;99300.31;4813489;29;20073;-82
2021/10/24 01:14:08;;;;;;;0.80;0.80;;;;;;;4.44;84.08;99297.72;4813718;29;20082;-81
2021/10/24 01:16:39;;;;;;;0.47;0.47;;;;;;;4.45;84.44;99306.31;4843072;29;20053;-81
2021/10/24 01:19:06;;;;;;;7.97;2.30;;;;;;;4.42;84.60;99309.00;4827530;29;20141;-81
2021/10/24 01:21:35;;;;;;;0.63;0.63;;;;;;;4.41;84.82;99302.16;4830294;29;20050;-82
2021/10/24 01:24:01;;;;;;;1.13;1.13;;;;;;;4.41;85.12;99303.00;4832410;29;20054;-81
2021/10/24 01:26:28;;;;;;;0.95;0.95;;;;;;;4.37;85.02;99305.75;4833040;29;20522;-81
2021/10/24 01:28:55;;;;;;;0.80;0.80;;;;;;;4.39;85.55;99303.94;4830567;29;20062;-81
2021/10/24 01:31:21;;;;;;;1.00;1.00;;;;;;;4.39;85.07;99306.53;4814386;29;20427;-81
2021/10/24 01:33:47;;;;;;;1.10;1.10;;;;;;;4.35;85.55;99300.63;4828311;29;20060;-81
2021/10/24 01:36:14;;;;;;;0.77;0.77;;;;;;;4.38;85.22;99307.47;4845086;29;20070;-81
2021/10/24 01:38:44;;;;;;;0.47;0.47;;;;;;;4.35;85.47;99310.16;4826058;29;20058;-79
2021/10/24 01:41:11;;;;;;;0.43;0.43;;;;;;;4.37;85.26;99306.59;4796275;29;20103;-78
2021/10/24 01:43:37;;;;;;;29.88;1.85;;;;;;;4.42;85.00;99314.16;4841840;29;20053;-80
2021/10/24 01:46:03;;;;;;;1.52;1.52;;;;;;;4.39;85.41;99303.94;4824766;29;20062;-78
2021/10/24 01:48:30;;;;;;;5.25;2.58;;;;;;;4.42;85.59;99309.84;4840355;29;20066;-78
2021/10/24 01:50:56;;;;;;;0.80;0.80;;;;;;;4.43;85.28;99316.69;4809752;29;20057;-76
2021/10/24 01:53:30;;;;;;;1.05;1.05;;;;;;;4.42;84.91;99309.00;4841574;29;20058;-77
2021/10/24 01:55:56;;;;;;;1.13;1.13;;;;;;;4.44;84.85;99317.56;4809916;29;20083;-80
2021/10/24 01:58:24;;;;;;;1.05;1.05;;;;;;;4.43;85.41;99313.28;4824957;29;20069;-80
2021/10/24 02:00:51;;;;;;;1.27;1.17;;;;;;;4.47;85.26;99322.59;4824456;29;20049;-79
2021/10/24 02:03:19;;;;;;;2.58;1.17;;;;;;;4.48;85.38;99324.28;4840899;29;20061;-79
2021/10/24 02:06:06;;;;;;;0.80;0.80;;;;;;;4.47;84.69;99322.59;4845369;29;20058;-81
2021/10/24 02:08:34;;;;;;;0.95;0.95;;;;;;;4.49;85.26;99323.38;4843006;29;20057;-79
2021/10/24 02:11:01;;;;;;;2.05;1.40;;;;;;;4.46;85.16;99314.00;4859650;29;20060;-80
2021/10/24 02:13:28;;;;;;;2.67;1.40;;;;;;;4.51;85.28;99313.84;4857530;29;20156;-78
2021/10/24 02:16:00;;;;;;;1.02;1.02;;;;;;;4.49;84.93;99319.03;4814155;29;20060;-82
2021/10/24 02:18:27;;;;;;;1.05;1.05;;;;;;;4.55;84.88;99326.56;4859562;29;20139;-78
2021/10/24 02:20:55;;;;;;;0.63;0.63;;;;;;;4.57;84.40;99329.09;4852533;29;20109;-83
2021/10/24 02:23:21;;;;;;;1.05;1.05;;;;;;;4.57;84.43;99329.94;4855434;29;20064;-82
2021/10/24 02:25:49;;;;;;;1.00;1.00;;;;;;;4.60;84.62;99326.38;4855692;29;20049;-83
2021/10/24 02:28:16;;;;;;;0.77;0.77;;;;;;;4.64;83.61;99325.38;4858555;29;20058;-84
2021/10/24 02:30:42;;;;;;;0.50;0.50;;;;;;;4.64;83.69;99330.53;4875788;29;20061;-84
2021/10/24 02:33:26;;;;;;;0.75;0.75;;;;;;;4.64;83.43;99333.13;4875024;29;20114;-82
2021/10/24 02:36:19;;;;;;;1.05;1.05;;;;;;;4.63;84.39;99323.69;4849162;29;20137;-80
2021/10/24 02:38:52;;;;;;;1.10;1.10;;;;;;;4.67;83.59;99336.44;4827496;29;20054;-79
2021/10/24 02:41:19;;;;;;;1.27;1.17;;;;;;;4.68;83.48;99326.91;4859576;29;20148;-81
2021/10/24 02:43:45;;;;;;;0.52;0.52;;;;;;;4.70;83.58;99335.47;4829455;29;20057;-81
2021/10/24 02:46:12;;;;;;;1.35;1.33;;;;;;;4.66;84.27;99327.00;4843739;29;20528;-80
2021/10/24 02:48:38;;;;;;;0.80;0.80;;;;;;;4.64;84.47;99336.56;4847446;29;20550;-83
2021/10/24 02:51:06;;;;;;;0.68;0.68;;;;;;;4.59;84.56;99322.09;4849996;29;20124;-83
2021/10/24 02:53:32;;;;;;;8.07;1.95;;;;;;;4.64;83.61;99336.56;4846601;29;20088;-82
2021/10/24 02:56:02;;;;;;;1.25;1.25;;;;;;;4.68;83.94;99329.50;4843102;29;20511;-83
2021/10/24 02:58:30;;;;;;;0.85;0.85;;;;;;;4.68;83.60;99334.66;4865353;29;20073;-80
2021/10/24 03:00:56;;;;;;;1.33;1.33;;;;;;;4.70;83.35;99330.28;4843288;29;20049;-80
2021/10/24 03:03:22;;;;;;;0.60;0.60;;;;;;;4.66;82.92;99323.56;4844471;29;20054;-79
2021/10/24 03:05:48;;;;;;;0.75;0.75;;;;;;;4.71;83.87;99329.41;4843052;29;20053;-81
2021/10/24 03:08:14;;;;;;;0.88;0.88;;;;;;;4.70;83.71;99331.16;4839477;29;20136;-81
2021/10/24 03:10:41;;;;;;;6.65;1.25;;;;;;;4.67;83.48;99327.84;4824098;29;20058;-81
2021/10/24 03:13:09;;;;;;;0.40;0.40;;;;;;;4.65;83.80;99325.28;4823889;29;20244;-82
2021/10/24 03:15:35;;;;;;;0.90;0.90;;;;;;;4.63;84.15;99334.88;4824480;29;20049;-82
2021/10/24 03:18:02;;;;;;;1.02;1.02;;;;;;;4.64;83.82;99330.53;4825901;29;20058;-82
2021/10/24 03:20:28;;;;;;;1.25;1.25;;;;;;;4.63;84.08;99339.19;4827260;29;20073;-82
2021/10/24 03:22:54;;;;;;;0.80;0.80;;;;;;;4.62;83.81;99333.16;4830366;29;20071;-82
2021/10/24 03:25:22;;;;;;;0.70;0.70;;;;;;;4.61;83.77;99333.25;4835479;29;20105;-84
2021/10/24 03:27:48;;;;;;;0.60;0.60;;;;;;;4.62;84.29;99337.50;4853397;29;20432;-83
2021/10/24 03:30:17;;;;;;;0.75;0.75;;;;;;;4.63;83.88;99344.34;4823358;29;20046;-81
2021/10/24 03:32:43;;;;;;;1.45;1.33;;;;;;;4.62;83.96;99332.31;4823369;29;20140;-78
2021/10/24 03:35:10;;;;;;;0.77;0.77;;;;;;;4.61;84.49;99338.41;4823405;29;20065;-80
2021/10/24 03:37:36;;;;;;;0.77;0.65;;;;;;;4.59;84.35;99347.97;4823396;29;20445;-79
2021/10/24 03:40:03;;;;;;;0.80;0.80;;;;;;;4.63;83.47;99350.38;4839852;29;20053;-80
2021/10/24 03:42:29;;;;;;;1.08;1.08;;;;;;;4.62;83.55;99347.84;4838699;29;20050;-81
2021/10/24 03:44:55;;;;;;;0.50;0.50;;;;;;;4.64;83.68;99346.91;4823182;29;20145;-80
2021/10/24 03:47:22;;;;;;;0.60;0.60;;;;;;;4.60;83.49;99344.47;4823255;29;20057;-80
2021/10/24 03:49:49;;;;;;;0.40;0.40;;;;;;;4.57;83.28;99345.44;4808196;29;20140;-80
2021/10/24 03:52:15;;;;;;;0.50;0.50;;;;;;;4.55;83.13;99349.81;4825705;29;20049;-83
2021/10/24 03:54:41;;;;;;;0.35;0.35;;;;;;;4.52;83.69;99349.09;4813889;29;20054;-82
2021/10/24 03:57:07;;;;;;;0.50;0.50;;;;;;;4.51;83.23;99352.59;4826475;29;20054;-80
2021/10/24 03:59:33;;;;;;;0.40;0.40;;;;;;;4.44;83.32;99345.97;4838163;29;20061;-79
2021/10/24 04:01:59;;;;;;;0.50;0.50;;;;;;;4.36;82.63;99350.56;4825538;29;20054;-80
2021/10/24 04:04:27;;;;;;;0.85;0.85;;;;;;;4.28;83.48;99352.63;4838374;29;20053;-79
2021/10/24 04:06:54;;;;;;;0.50;0.50;;;;;;;4.22;83.87;99355.44;4838279;29;20057;-81
2021/10/24 04:09:21;;;;;;;0.40;0.40;;;;;;;4.19;83.56;99366.69;4839403;29;20054;-80
2021/10/24 04:11:48;;;;;;;0.70;0.70;;;;;;;4.19;83.62;99364.97;4838067;29;20049;-79
2021/10/24 04:14:14;;;;;;;0.40;0.40;;;;;;;4.19;83.30;99358.94;4837906;29;20083;-79
2021/10/24 04:16:41;;;;;;;0.50;0.50;;;;;;;4.15;82.85;99363.41;4822916;29;20152;-82
2021/10/24 04:19:25;;;;;;;0.50;0.50;;;;;;;4.15;83.21;99367.75;4839486;29;20458;-81
2021/10/24 04:21:53;;;;;;;0.50;0.50;;;;;;;4.13;83.27;99380.69;4842910;29;20103;-82
2021/10/24 04:24:19;;;;;;;0.40;0.40;;;;;;;4.13;83.46;99374.69;4843970;29;20071;-81
2021/10/24 04:26:45;;;;;;;0.40;0.40;;;;;;;4.13;83.23;99385.84;4840025;29;20049;-81
2021/10/24 04:29:11;;;;;;;0.50;0.50;;;;;;;4.12;84.04;99388.50;4838887;29;20070;-81
2021/10/24 04:31:39;;;;;;;0.50;0.50;;;;;;;4.09;83.90;99389.44;4824428;29;20536;-79
2021/10/24 04:34:05;;;;;;;0.40;0.40;;;;;;;4.06;84.81;99399.03;4837745;29;20156;-81
2021/10/24 04:36:31;;;;;;;0.70;0.70;;;;;;;3.96;85.18;99389.97;4840142;29;20064;-81
2021/10/24 04:38:57;;;;;;;0.40;0.40;;;;;;;3.93;85.50;99388.31;4842408;29;20113;-81
2021/10/24 04:41:23;;;;;;;0.40;0.40;;;;;;;3.88;86.16;99385.06;4811703;29;20079;-81
2021/10/24 04:43:51;;;;;;;0.50;0.50;;;;;;;3.90;86.64;99398.75;4842502;29;20058;-80
2021/10/24 04:46:19;;;;;;;0.65;0.65;;;;;;;3.90;87.01;99397.91;4841537;29;20572;-81
2021/10/24 04:48:46;;;;;;;0.50;0.50;;;;;;;3.90;87.77;99403.91;4841807;29;20142;-81
2021/10/24 04:51:12;;;;;;;0.50;0.50;;;;;;;3.86;87.44;99406.66;4811437;29;20521;-80
2021/10/24 04:53:40;;;;;;;0.50;0.50;;;;;;;3.86;87.48;99406.66;4826939;29;20482;-80
2021/10/24 04:56:06;;;;;;;0.50;0.50;;;;;;;3.86;87.57;99412.66;4827552;29;20053;-85
2021/10/24 04:58:33;;;;;;;0.43;0.43;;;;;;;3.82;87.71;99415.41;4837134;29;20057;-80
2021/10/24 05:00:59;;;;;;;0.50;0.50;;;;;;;3.89;87.74;99424.63;4846771;29;20054;-83
2021/10/24 05:03:25;;;;;;;0.45;0.45;;;;;;;3.90;87.66;99424.56;4867454;29;20068;-86
2021/10/24 05:05:52;;;;;;;0.68;0.68;;;;;;;3.97;87.00;99426.03;4852645;29;20053;-83
2021/10/24 05:08:19;;;;;;;0.50;0.50;;;;;;;4.01;87.00;99429.34;4847472;29;20058;-80
2021/10/24 05:10:45;;;;;;;0.50;0.50;;;;;;;4.04;86.85;99431.84;4862681;29;20058;-81
2021/10/24 05:13:12;;;;;;;0.60;0.60;;;;;;;4.11;85.45;99438.47;4836048;29;20061;-85
2021/10/24 05:15:39;;;;;;;0.60;0.60;;;;;;;4.15;85.79;99440.91;4859942;29;20121;-80
2021/10/24 05:18:08;;;;;;;0.50;0.50;;;;;;;4.20;85.49;99445.88;4860506;29;20057;-82
2021/10/24 05:20:36;;;;;;;0.40;0.40;;;;;;;4.22;84.76;99447.50;4868715;29;20053;-82
2021/10/24 05:23:05;;;;;;;0.40;0.40;;;;;;;4.28;84.71;99448.22;4861865;29;20060;-85
2021/10/24 05:25:58;;;;;;;0.68;0.68;;;;;;;4.30;84.36;99455.00;4876179;29;20050;-90
2021/10/24 05:28:25;;;;;;;0.40;0.40;;;;;;;4.34;83.89;99455.72;4842264;29;20077;-84
2021/10/24 05:30:53;;;;;;;0.35;0.35;;;;;;;4.31;83.70;99440.34;4837307;29;20080;-86
2021/10/24 05:33:20;;;;;;;0.40;0.40;;;;;;;4.40;82.26;99458.94;4865777;29;20057;-82
2021/10/24 05:36:05;;;;;;;1.13;1.13;;;;;;;4.46;81.92;99460.44;4863278;29;20087;-81
2021/10/24 05:38:31;;;;;;;0.30;0.30;;;;;;;4.47;82.46;99454.38;4850922;29;20053;-80
2021/10/24 05:41:03;;;;;;;0.57;0.57;;;;;;;4.46;81.97;99450.09;4858344;29;20140;-80
2021/10/24 05:43:30;;;;;;;0.45;0.45;;;;;;;4.50;81.00;99468.03;4834452;29;20077;-82
2021/10/24 05:45:56;;;;;;;1.05;1.05;;;;;;;4.52;80.12;99460.22;4873548;29;20128;-84
2021/10/24 05:48:22;;;;;;;0.40;0.40;;;;;;;4.54;79.94;99469.63;4863578;29;20122;-83
2021/10/24 05:50:59;;;;;;;0.40;0.40;;;;;;;4.62;79.55;99472.75;4846161;29;20153;-83
2021/10/24 05:53:28;;;;;;;0.52;0.52;;;;;;;4.60;79.68;99478.88;4862617;29;20064;-82
2021/10/24 05:55:54;;;;;;;0.40;0.40;;;;;;;4.60;79.58;99479.75;4862015;29;20049;-80
2021/10/24 05:58:21;;;;;;;0.60;0.60;;;;;;;4.58;79.69;99485.88;4861709;29;20061;-81
2021/10/24 06:01:05;;;;;;;0.50;0.50;;;;;;;4.65;79.42;99500.22;4863548;29;20845;-82
2021/10/24 06:03:59;;;;;;;0.45;0.45;;;;;;;4.67;79.56;99496.72;4818366;29;20428;-83
2021/10/24 06:06:45;;;;;;;0.77;0.77;;;;;;;4.63;78.43;99495.13;4840905;29;20062;-84
2021/10/24 06:09:11;;;;;;;0.40;0.40;;;;;;;4.73;78.70;99511.16;4847350;29;20085;-82
2021/10/24 06:11:53;;;;;;;0.50;0.50;;;;;;;4.68;78.61;99500.13;4847012;29;20053;-83
2021/10/24 06:14:19;;;;;;;0.60;0.60;;;;;;;4.66;78.08;99500.19;4858266;29;20054;-84
2021/10/24 06:16:47;;;;;;;0.50;0.50;;;;;;;4.71;78.20;99512.97;4798705;29;20057;-84
2021/10/24 06:19:13;;;;;;;0.40;0.40;;;;;;;4.68;77.89;99523.38;4845056;29;20081;-84
2021/10/24 06:21:39;;;;;;;0.55;0.55;;;;;;;4.76;77.62;99523.13;4830230;29;20487;-84
2021/10/24 06:24:05;;;;;;;0.68;0.68;;;;;;;4.79;77.53;99520.41;4843126;29;20065;-83
2021/10/24 06:26:31;;;;;;;0.40;0.40;;;;;;;4.74;76.51;99524.00;4827315;29;20061;-83
2021/10/24 06:28:58;;;;;;;0.40;0.40;;;;;;;4.77;76.76;99530.81;4825709;29;20476;-84
2021/10/24 06:31:24;;;;;;;0.40;0.40;;;;;;;4.72;76.03;99524.97;4814713;29;20056;-83
2021/10/24 06:34:22;;;;;;;0.40;0.40;;;;;;;4.82;76.01;99534.06;4826948;29;20049;-85
2021/10/24 06:37:22;;;;;;;2.10;1.05;;;;;;;4.85;75.95;99536.53;4824501;29;20089;-81
2021/10/24 07:24:03;;;;;;;0.40;0.40;;;;;;;4.90;77.03;99576.03;4858406;29;20067;-78
2021/10/24 07:26:37;;;;;;;0.93;0.93;;;;;;;4.88;77.22;99566.63;4822306;29;20509;-80
2021/10/24 07:29:03;;;;;;;0.50;0.50;;;;;;;4.92;77.65;99578.53;4823795;29;20045;-83
2021/10/24 07:31:30;;;;;;;1.02;0.98;;;;;;;5.05;76.48;99583.22;4823818;29;20061;-78
2021/10/24 07:34:15;;;;;;;0.40;0.40;;;;;;;5.10;76.58;99588.22;4831234;29;20588;-80
2021/10/24 07:36:44;;;;;;;0.40;0.40;;;;;;;5.04;76.50;99580.69;4823101;29;20755;-76
2021/10/24 07:39:11;;;;;;;0.52;0.52;;;;;;;5.09;76.01;99587.38;4822413;29;20089;-78
2021/10/24 07:41:38;;;;;;;0.40;0.40;;;;;;;5.21;75.87;99597.25;4822861;29;20612;-78
2021/10/24 07:44:07;;;;;;;0.55;0.55;;;;;;;5.31;75.10;99594.31;4807547;29;20547;-77
2021/10/24 07:46:34;;;;;;;0.43;0.43;;;;;;;5.23;75.01;99600.63;4824784;29;20137;-79
2021/10/24 07:49:01;;;;;;;0.40;0.40;;;;;;;5.16;75.24;99591.44;4822489;29;20060;-80
2021/10/24 07:51:27;;;;;;;0.57;0.57;;;;;;;5.04;75.23;99594.44;4838730;29;20058;-78
2021/10/24 07:53:53;;;;;;;0.40;0.40;;;;;;;5.06;75.19;99587.50;4823334;29;20062;-80
2021/10/24 07:56:21;;;;;;;0.60;0.60;;;;;;;5.15;75.90;99607.00;4809771;29;20719;-81
2021/10/24 07:58:59;;;;;;;0.40;0.40;;;;;;;5.05;75.98;99598.72;4827893;29;20058;-81
2021/10/24 08:01:26;;;;;;;0.50;0.50;;;;;;;5.16;75.67;99608.69;4786452;29;20050;-82
2021/10/24 08:03:53;;;;;;;0.40;0.40;;;;;;;5.20;75.64;99610.28;4824587;29;20114;-82
2021/10/24 08:06:31;;;;;;;0.82;0.82;;;;;;;5.17;75.49;99610.41;4824164;29;20048;-78
2021/10/24 08:08:58;;;;;;;0.50;0.50;;;;;;;5.17;75.02;99621.56;4824263;29;20287;-77
2021/10/24 08:11:24;;;;;;;0.40;0.40;;;;;;;5.16;74.62;99609.53;4806987;29;20087;-76
2021/10/24 08:13:51;;;;;;;0.40;0.40;;;;;;;5.21;74.53;99627.47;4819436;29;20068;-77
2021/10/24 08:16:17;;;;;;;0.50;0.50;;;;;;;5.20;73.75;99624.03;4816871;29;20109;-77
2021/10/24 08:18:44;;;;;;;0.80;0.80;;;;;;;5.18;74.77;99618.09;4818275;29;20228;-78
2021/10/24 08:21:11;;;;;;;1.00;1.00;;;;;;;5.11;75.24;99621.78;4819284;29;20081;-75
2021/10/24 08:23:42;;;;;;;0.60;0.60;;;;;;;5.16;75.03;99627.66;4809386;29;20062;-78
2021/10/24 08:26:09;;;;;;;0.88;0.88;;;;;;;5.16;74.49;99619.03;4824486;29;20092;-76
2021/10/24 08:28:37;;;;;;;0.60;0.60;;;;;;;5.00;74.47;99634.28;4825684;29;20122;-77
2021/10/24 08:31:25;;;;;;;0.50;0.50;;;;;;;4.87;75.47;99633.03;4812030;29;20049;-77
2021/10/24 08:33:53;;;;;;;0.90;0.90;;;;;;;4.98;75.19;99645.56;4811087;29;20425;-76
2021/10/24 08:36:19;;;;;;;0.60;0.60;;;;;;;4.93;75.97;99650.91;4825193;29;20065;-76
2021/10/24 08:38:45;;;;;;;0.60;0.60;;;;;;;4.79;77.37;99660.88;4825045;29;20115;-79
2021/10/24 08:41:12;;;;;;;1.40;1.30;;;;;;;4.82;78.04;99665.09;4811933;29;20661;-79
2021/10/24 08:43:40;;;;;;;0.70;0.70;;;;;;;4.87;76.97;99652.88;4832521;29;20058;-78
2021/10/24 08:46:06;;;;;;;0.40;0.40;;;;;;;4.76;76.49;99666.16;4832581;29;20061;-78
2021/10/24 08:48:35;;;;;;;0.73;0.73;;;;;;;4.65;78.90;99670.84;4832909;29;20050;-79
2021/10/24 08:51:02;;;;;;;0.40;0.40;;;;;;;4.61;79.97;99684.78;4798834;29;20191;-79
2021/10/24 08:53:29;;;;;;;0.40;0.40;;;;;;;4.46;79.35;99683.53;4829398;29;20153;-81
2021/10/24 08:55:55;;;;;;;0.50;0.50;;;;;;;4.43;79.77;99688.81;4816423;29;20065;-79
2021/10/24 08:58:22;;;;;;;0.50;0.50;;;;;;;4.46;79.08;99698.19;4831039;29;20064;-78
2021/10/24 09:00:49;;;;;;;0.60;0.60;;;;;;;4.46;79.63;99691.31;4814392;29;20473;-79
2021/10/24 09:03:16;;;;;;;0.70;0.70;;;;;;;4.66;79.10;99690.63;4785185;29;20086;-78
2021/10/24 09:05:57;;;;;;;0.70;0.70;;;;;;;5.04;78.18;99692.75;4829932;29;20078;-80
2021/10/24 09:08:30;;;;;;;0.57;0.57;;;;;;;4.95;77.29;99648.25;4803241;29;20072;-79
2021/10/24 09:10:59;;;;;;;0.85;0.85;;;;;;;4.92;74.70;99700.09;4804587;29;20058;-77
2021/10/24 09:13:47;;;;;;;0.40;0.40;;;;;;;4.95;74.63;99708.59;4804667;29;20117;-78
2021/10/24 09:16:19;;;;;;;3.05;1.10;;;;;;;4.90;74.20;99705.34;4795611;29;20057;-78
2021/10/24 09:18:45;;;;;;;0.43;0.43;;;;;;;4.86;74.10;99714.09;4804022;29;20050;-74
2021/10/24 09:21:17;;;;;;;0.50;0.50;;;;;;;4.98;74.09;99705.06;4821253;29;20061;-77
2021/10/24 09:24:11;;;;;;;0.60;0.60;;;;;;;5.02;75.19;99714.41;4823234;29;20081;-77
2021/10/24 09:26:38;;;;;;;0.40;0.40;;;;;;;4.92;74.09;99719.06;4821472;29;20062;-78
2021/10/24 09:29:14;;;;;;;0.47;0.47;;;;;;;4.85;73.01;99714.13;4839546;29;20053;-76
2021/10/24 09:31:44;;;;;;;0.52;0.52;;;;;;;4.81;72.34;99725.50;4794260;29;20054;-77
2021/10/24 09:34:12;;;;;;;0.40;0.40;;;;;;;4.76;71.97;99728.22;4826653;29;20046;-77
2021/10/24 09:36:56;;;;;;;0.52;0.52;;;;;;;4.87;72.24;99736.47;4810575;29;20058;-75
2021/10/24 09:39:41;;;;;;;;;;;;;;;4.78;72.82;99752.28;4826073;29;20106;-77
2021/10/24 09:42:27;;;;;;;0.47;0.47;;;;;;;4.56;74.22;99746.13;4842705;29;19924;-79
2021/10/24 09:45:06;;;;;;;0.40;0.40;;;;;;;4.65;74.72;99751.84;4825204;29;20145;-78
2021/10/24 09:47:37;;;;;;;0.50;0.50;;;;;;;4.48;75.25;99755.88;4842283;29;20090;-75
2021/10/24 09:50:03;;;;;;;0.40;0.40;;;;;;;4.34;74.99;99758.03;4841675;29;20098;-78
2021/10/24 09:52:33;;;;;;;0.50;0.50;;;;;;;4.42;75.10;99761.22;4841920;29;20065;-79
2021/10/24 09:55:32;;;;;;;0.65;0.65;;;;;;;4.50;75.14;99772.16;4795851;29;20050;-76
2021/10/24 09:58:04;;;;;;;0.60;0.60;;;;;;;4.51;73.49;99779.03;4812077;29;20420;-78
2021/10/24 10:00:31;;;;;;;0.43;0.43;;;;;;;4.56;73.07;99782.31;4819618;29;20050;-78
2021/10/24 10:02:59;;;;;;;0.50;0.50;;;;;;;4.56;72.89;99787.47;4830432;29;20146;-79
2021/10/24 10:05:25;;;;;;;0.50;0.50;;;;;;;4.60;72.97;99792.50;4785479;29;20054;-79
2021/10/24 10:07:51;;;;;;;0.40;0.40;;;;;;;4.64;72.98;99801.03;4827951;29;20105;-79
2021/10/24 10:10:17;;;;;;;0.60;0.60;;;;;;;4.65;72.55;99792.34;4825871;29;20054;-78
2021/10/24 10:12:48;;;;;;;0.40;0.40;;;;;;;4.65;72.34;99794.94;4824570;29;20063;-79
2021/10/24 10:15:15;;;;;;;0.77;0.77;;;;;;;4.75;72.73;99801.50;4810267;29;20132;-75
2021/10/24 10:17:40;;;;;;;0.55;0.55;;;;;;;4.67;71.97;99813.84;4809584;29;20151;-76
2021/10/24 10:20:25;;;;;;;0.50;0.50;;;;;;;4.67;71.54;99806.94;4839671;29;20050;-75
2021/10/24 10:23:02;;;;;;;0.63;0.63;;;;;;;4.68;71.25;99818.09;4793897;29;20061;-76
2021/10/24 10:25:30;;;;;;;0.40;0.40;;;;;;;4.65;71.61;99820.78;4835111;29;20132;-76
2021/10/24 10:27:56;;;;;;;0.57;0.57;;;;;;;4.66;70.64;99825.06;4858862;29;20053;-75
2021/10/24 10:30:36;;;;;;;1.27;1.05;;;;;;;4.57;71.04;99823.63;4827578;29;20054;-75
2021/10/24 10:33:04;;;;;;;0.40;0.40;;;;;;;4.51;70.88;99830.72;4860463;29;20077;-77
2021/10/24 10:35:31;;;;;;;0.77;0.77;;;;;;;4.30;70.92;99836.53;4819575;29;20054;-75
2021/10/24 10:38:03;;;;;;;0.85;0.85;;;;;;;4.17;71.99;99860.16;4823492;29;20052;-77
2021/10/24 10:40:38;;;;;;;1.60;0.70;;;;;;;3.78;73.41;99858.69;4840416;29;20065;-76
2021/10/24 10:43:11;;;;;;;1.02;1.02;;;;;;;3.84;71.67;99860.25;4823972;29;20057;-75
2021/10/24 10:45:39;;;;;;;1.55;0.88;;;;;;;3.79;71.34;99862.13;4826879;29;20098;-75
2021/10/24 10:48:10;;;;;;;0.52;0.52;;;;;;;3.76;74.18;99875.97;4858345;29;20160;-75
2021/10/24 10:50:39;;;;;;;;;;;;;;;3.53;74.90;99883.47;4827455;29;20525;-75
2021/10/24 10:53:06;;;;;;;0.40;0.40;;;;;;;3.56;74.37;99883.38;4858405;29;19919;-75
2021/10/24 10:56:05;;;;;;;0.40;0.40;;;;;;;3.64;74.81;99879.69;4857387;29;20057;-76
2021/10/24 10:58:39;;;;;;;0.40;0.40;;;;;;;3.61;73.49;99884.94;4858492;29;20053;-75
2021/10/24 11:01:06;;;;;;;0.50;0.50;;;;;;;3.77;74.25;99893.13;4856925;29;20049;-75
2021/10/24 11:03:44;;;;;;;0.40;0.40;;;;;;;3.73;73.65;99888.09;4842070;29;20136;-76
2021/10/24 11:06:11;;;;;;;0.50;0.50;;;;;;;3.78;73.77;99897.41;4841880;29;20059;-76
2021/10/24 11:08:47;;;;;;;0.50;0.50;;;;;;;3.83;73.13;99900.69;4858313;29;20062;-75
2021/10/24 11:11:13;;;;;;;1.13;1.13;;;;;;;3.84;73.74;99905.00;4858266;29;20136;-75
2021/10/24 11:13:41;;;;;;;0.40;0.40;;;;;;;3.85;74.14;99911.84;4841683;29;20501;-75
2021/10/24 11:16:47;;;;;;;0.50;0.50;;;;;;;3.81;73.95;99917.97;4843770;29;20172;-76
2021/10/24 11:19:37;;;;;;;0.50;0.50;;;;;;;3.79;74.74;99921.50;4753073;30;20051;-77
2021/10/24 11:22:09;;;;;;;0.60;0.60;;;;;;;3.83;75.17;99926.53;4856912;29;20061;-77
2021/10/24 11:24:40;;;;;;;2.17;2.05;;;;;;;3.94;74.64;99932.25;4858047;29;20113;-76
2021/10/24 11:27:07;;;;;;;0.50;0.50;;;;;;;3.94;74.19;99934.00;4840923;29;20058;-77
2021/10/24 11:29:34;;;;;;;0.55;0.55;;;;;;;3.91;72.52;99932.34;4842831;29;20085;-78
2021/10/24 11:32:23;;;;;;;0.50;0.50;;;;;;;4.02;71.50;99940.66;4826319;29;20108;-75
2021/10/24 11:34:52;;;;;;;0.50;0.50;;;;;;;3.90;72.11;99933.22;4857580;29;20053;-75
2021/10/24 11:37:36;;;;;;;0.45;0.45;;;;;;;3.95;70.61;99933.13;4841535;29;20080;-75
2021/10/24 11:40:19;;;;;;;0.40;0.40;;;;;;;3.97;70.86;99942.50;4841448;29;20081;-80
2021/10/24 11:43:05;;;;;;;0.60;0.60;;;;;;;3.99;70.61;99945.88;4841705;29;20576;-79
2021/10/24 11:45:55;;;;;;;0.55;0.55;;;;;;;3.96;71.97;99961.47;4856284;29;20053;-79
2021/10/24 11:48:25;;;;;;;0.50;0.50;;;;;;;3.83;73.15;99954.91;4823138;29;20785;-78
2021/10/24 11:51:12;;;;;;;1.15;1.15;;;;;;;3.29;78.18;99985.53;4810201;29;20588;-79
2021/10/24 11:53:42;;;;;;;0.88;0.88;;;;;;;2.74;80.08;99978.19;4830145;29;20094;-79
2021/10/24 11:56:09;;;;;;;1.02;1.02;;;;;;;2.92;75.91;99990.66;4847555;29;20083;-78
2021/10/24 11:58:43;;;;;;;0.90;0.90;;;;;;;3.15;76.27;99991.00;4845631;29;20081;-79
2021/10/24 12:01:15;;;;;;;1.15;1.05;;;;;;;3.30;73.94;99996.69;4830610;29;20062;-79
2021/10/24 12:03:54;;;;;;;1.50;1.38;;;;;;;3.38;71.81;99976.72;4839379;29;20473;-78
2021/10/24 12:06:53;;;;;;;2.05;0.95;;;;;;;3.38;72.80;100015.41;4839454;29;20078;-79
2021/10/24 12:09:50;;;;;;;1.15;1.08;;;;;;;3.28;70.61;100006.19;4808175;29;20619;-79
2021/10/24 12:12:19;;;;;;;1.23;1.23;;;;;;;3.24;68.70;100009.75;4809371;29;20090;-79
2021/10/24 12:15:05;;;;;;;0.93;0.65;;;;;;;3.22;68.24;100001.19;4822467;29;20148;-78
2021/10/24 12:17:35;;;;;;;0.63;0.63;;;;;;;3.27;67.45;100035.47;4825065;29;20061;-79
2021/10/24 12:20:19;;;;;;;1.83;1.00;;;;;;;3.28;67.83;100031.97;4823109;29;20054;-77
2021/10/24 12:22:47;;;;;;;0.95;0.95;;;;;;;3.20;67.73;100049.38;4824022;29;20076;-78
2021/10/24 12:25:16;;;;;;;5.45;1.27;;;;;;;3.26;67.83;100044.09;4828572;29;20061;-77
2021/10/24 12:28:13;;;;;;;10.23;0.95;;;;;;;3.15;68.26;100044.31;4839737;29;20058;-75
2021/10/24 12:31:14;;;;;;;0.43;0.43;;;;;;;3.23;68.51;100062.22;4838468;29;20062;-79
2021/10/24 12:33:43;;;;;;;0.60;0.60;;;;;;;3.20;66.66;100055.41;4839727;29;20046;-77
2021/10/24 12:36:33;;;;;;;1.98;1.48;;;;;;;3.17;66.63;100063.19;4825101;29;20110;-77
2021/10/24 12:39:33;;;;;;;0.50;0.50;;;;;;;3.20;67.03;100075.16;4838817;29;20106;-77
2021/10/24 12:42:22;;;;;;;0.68;0.68;;;;;;;3.19;66.96;100074.31;4824845;29;20095;-76